sensor_id;sensor_type;location;lat;lon;timestamp;P1;durP1;ratioP1;P2;durP2;ratioP2
50231;SDS011;36118;56.468;84.952;2022-12-18T00:09:55;131.15;;;45.90;;
50231;SDS011;36118;56.468;84.952;2022-12-18T00:14:59;154.13;;;56.67;;
50231;SDS011;36118;56.468;84.952;2022-12-18T00:20:02;156.98;;;66.35;;
50231;SDS011;36118;56.468;84.952;2022-12-18T00:25:05;169.70;;;66.35;;
50231;SDS011;36118;56.468;84.952;2022-12-18T00:30:08;155.45;;;51.53;;
50231;SDS011;36118;56.468;84.952;2022-12-18T00:35:11;205.07;;;89.70;;
50231;SDS011;36118;56.468;84.952;2022-12-18T00:40:14;159.18;;;56.35;;
50231;SDS011;36118;56.468;84.952;2022-12-18T00:45:16;189.60;;;75.57;;
50231;SDS011;36118;56.468;84.952;2022-12-18T00:50:21;194.20;;;82.40;;
50231;SDS011;36118;56.468;84.952;2022-12-18T00:55:24;167.93;;;65.95;;
50231;SDS011;36118;56.468;84.952;2022-12-18T01:00:27;165.32;;;65.07;;
50231;SDS011;36118;56.468;84.952;2022-12-18T01:05:29;123.95;;;45.33;;
50231;SDS011;36118;56.468;84.952;2022-12-18T01:10:32;115.03;;;41.20;;
50231;SDS011;36118;56.468;84.952;2022-12-18T01:15:35;83.38;;;29.75;;
50231;SDS011;36118;56.468;84.952;2022-12-18T01:20:38;130.65;;;49.47;;
50231;SDS011;36118;56.468;84.952;2022-12-18T01:25:40;115.53;;;39.13;;
50231;SDS011;36118;56.468;84.952;2022-12-18T01:30:44;131.32;;;44.83;;
50231;SDS011;36118;56.468;84.952;2022-12-18T01:35:46;78.45;;;26.90;;
50231;SDS011;36118;56.468;84.952;2022-12-18T01:40:49;151.38;;;55.22;;
50231;SDS011;36118;56.468;84.952;2022-12-18T01:45:59;143.02;;;54.50;;
50231;SDS011;36118;56.468;84.952;2022-12-18T01:51:02;122.40;;;44.15;;
50231;SDS011;36118;56.468;84.952;2022-12-18T01:56:07;102.32;;;37.80;;
50231;SDS011;36118;56.468;84.952;2022-12-18T02:01:11;93.10;;;31.33;;
50231;SDS011;36118;56.468;84.952;2022-12-18T02:11:33;117.43;;;46.88;;
50231;SDS011;36118;56.468;84.952;2022-12-18T02:17:18;96.18;;;35.58;;
50231;SDS011;36118;56.468;84.952;2022-12-18T02:22:29;98.90;;;39.42;;
50231;SDS011;36118;56.468;84.952;2022-12-18T02:27:40;64.25;;;22.50;;
50231;SDS011;36118;56.468;84.952;2022-12-18T02:32:51;40.63;;;14.13;;
50231;SDS011;36118;56.468;84.952;2022-12-18T02:37:54;84.25;;;33.25;;
50231;SDS011;36118;56.468;84.952;2022-12-18T02:43:02;99.47;;;38.53;;
50231;SDS011;36118;56.468;84.952;2022-12-18T03:09:34;87.13;;;34.23;;
50231;SDS011;36118;56.468;84.952;2022-12-18T03:14:39;94.75;;;32.78;;
50231;SDS011;36118;56.468;84.952;2022-12-18T03:19:43;93.85;;;38.38;;
50231;SDS011;36118;56.468;84.952;2022-12-18T03:24:49;64.35;;;22.63;;
50231;SDS011;36118;56.468;84.952;2022-12-18T03:29:53;75.68;;;28.48;;
50231;SDS011;36118;56.468;84.952;2022-12-18T03:35:11;102.78;;;36.25;;
50231;SDS011;36118;56.468;84.952;2022-12-18T03:40:21;68.68;;;18.10;;
50231;SDS011;36118;56.468;84.952;2022-12-18T03:45:36;86.83;;;31.93;;
50231;SDS011;36118;56.468;84.952;2022-12-18T04:00:56;43.58;;;15.43;;
50231;SDS011;36118;56.468;84.952;2022-12-18T04:06:02;82.07;;;31.15;;
50231;SDS011;36118;56.468;84.952;2022-12-18T04:11:06;44.97;;;16.05;;
50231;SDS011;36118;56.468;84.952;2022-12-18T04:16:09;57.20;;;26.80;;
50231;SDS011;36118;56.468;84.952;2022-12-18T04:21:16;61.22;;;26.63;;
50231;SDS011;36118;56.468;84.952;2022-12-18T04:26:21;59.63;;;21.48;;
50231;SDS011;36118;56.468;84.952;2022-12-18T04:31:44;79.00;;;30.45;;
50231;SDS011;36118;56.468;84.952;2022-12-18T04:36:47;72.30;;;28.92;;
50231;SDS011;36118;56.468;84.952;2022-12-18T04:41:50;86.97;;;34.45;;
50231;SDS011;36118;56.468;84.952;2022-12-18T04:46:53;63.67;;;25.50;;
50231;SDS011;36118;56.468;84.952;2022-12-18T04:51:57;88.65;;;32.03;;
50231;SDS011;36118;56.468;84.952;2022-12-18T04:57:00;67.28;;;25.95;;
50231;SDS011;36118;56.468;84.952;2022-12-18T05:02:03;58.55;;;19.20;;
50231;SDS011;36118;56.468;84.952;2022-12-18T05:07:06;65.50;;;25.85;;
50231;SDS011;36118;56.468;84.952;2022-12-18T05:12:08;81.13;;;28.70;;
50231;SDS011;36118;56.468;84.952;2022-12-18T05:17:11;61.72;;;23.45;;
50231;SDS011;36118;56.468;84.952;2022-12-18T05:22:14;71.60;;;26.50;;
50231;SDS011;36118;56.468;84.952;2022-12-18T05:27:17;67.15;;;25.88;;
50231;SDS011;36118;56.468;84.952;2022-12-18T05:32:21;68.38;;;23.65;;
50231;SDS011;36118;56.468;84.952;2022-12-18T05:42:26;65.22;;;26.73;;
50231;SDS011;36118;56.468;84.952;2022-12-18T05:47:29;56.85;;;20.52;;
50231;SDS011;36118;56.468;84.952;2022-12-18T05:57:34;67.35;;;29.10;;
50231;SDS011;36118;56.468;84.952;2022-12-18T06:07:40;53.47;;;20.15;;
50231;SDS011;36118;56.468;84.952;2022-12-18T06:12:43;55.28;;;21.33;;
50231;SDS011;36118;56.468;84.952;2022-12-18T06:17:45;46.30;;;17.00;;
50231;SDS011;36118;56.468;84.952;2022-12-18T06:22:48;62.88;;;25.00;;
50231;SDS011;36118;56.468;84.952;2022-12-18T06:27:51;49.60;;;19.40;;
50231;SDS011;36118;56.468;84.952;2022-12-18T06:37:57;32.90;;;11.55;;
50231;SDS011;36118;56.468;84.952;2022-12-18T06:43:00;57.38;;;20.35;;
50231;SDS011;36118;56.468;84.952;2022-12-18T06:48:03;59.00;;;22.75;;
50231;SDS011;36118;56.468;84.952;2022-12-18T06:58:08;42.05;;;16.95;;
50231;SDS011;36118;56.468;84.952;2022-12-18T07:03:12;54.35;;;21.63;;
50231;SDS011;36118;56.468;84.952;2022-12-18T07:08:15;58.72;;;22.23;;
50231;SDS011;36118;56.468;84.952;2022-12-18T07:13:18;57.33;;;23.33;;
50231;SDS011;36118;56.468;84.952;2022-12-18T07:23:23;64.20;;;27.13;;
50231;SDS011;36118;56.468;84.952;2022-12-18T07:28:25;44.72;;;17.73;;
50231;SDS011;36118;56.468;84.952;2022-12-18T07:33:28;67.93;;;28.05;;
50231;SDS011;36118;56.468;84.952;2022-12-18T07:43:34;55.83;;;22.55;;
50231;SDS011;36118;56.468;84.952;2022-12-18T07:48:38;57.33;;;25.00;;
50231;SDS011;36118;56.468;84.952;2022-12-18T07:53:40;48.45;;;20.75;;
50231;SDS011;36118;56.468;84.952;2022-12-18T07:58:44;49.70;;;19.77;;
50231;SDS011;36118;56.468;84.952;2022-12-18T08:03:49;51.72;;;18.15;;
50231;SDS011;36118;56.468;84.952;2022-12-18T08:08:53;57.72;;;22.02;;
50231;SDS011;36118;56.468;84.952;2022-12-18T08:13:57;59.38;;;23.73;;
50231;SDS011;36118;56.468;84.952;2022-12-18T08:19:00;60.85;;;25.85;;
50231;SDS011;36118;56.468;84.952;2022-12-18T08:24:03;46.40;;;17.92;;
50231;SDS011;36118;56.468;84.952;2022-12-18T08:34:08;54.55;;;23.08;;
50231;SDS011;36118;56.468;84.952;2022-12-18T08:39:11;41.17;;;13.07;;
50231;SDS011;36118;56.468;84.952;2022-12-18T08:44:14;41.60;;;17.92;;
50231;SDS011;36118;56.468;84.952;2022-12-18T08:49:35;26.70;;;10.00;;
50231;SDS011;36118;56.468;84.952;2022-12-18T08:59:41;19.55;;;8.57;;
50231;SDS011;36118;56.468;84.952;2022-12-18T09:04:43;18.05;;;7.25;;
50231;SDS011;36118;56.468;84.952;2022-12-18T09:09:57;32.42;;;16.35;;
50231;SDS011;36118;56.468;84.952;2022-12-18T09:15:00;28.48;;;11.38;;
50231;SDS011;36118;56.468;84.952;2022-12-18T09:20:03;34.67;;;16.15;;
50231;SDS011;36118;56.468;84.952;2022-12-18T09:30:13;35.85;;;15.65;;
50231;SDS011;36118;56.468;84.952;2022-12-18T09:35:16;31.15;;;13.48;;
50231;SDS011;36118;56.468;84.952;2022-12-18T09:40:20;25.48;;;9.85;;
50231;SDS011;36118;56.468;84.952;2022-12-18T09:45:25;28.13;;;12.15;;
50231;SDS011;36118;56.468;84.952;2022-12-18T09:50:35;25.67;;;10.07;;
50231;SDS011;36118;56.468;84.952;2022-12-18T09:55:40;24.00;;;9.25;;
50231;SDS011;36118;56.468;84.952;2022-12-18T10:00:45;23.40;;;9.20;;
50231;SDS011;36118;56.468;84.952;2022-12-18T10:16:33;23.60;;;10.90;;
50231;SDS011;36118;56.468;84.952;2022-12-18T10:27:21;23.92;;;10.65;;
50231;SDS011;36118;56.468;84.952;2022-12-18T10:32:26;20.20;;;9.27;;
50231;SDS011;36118;56.468;84.952;2022-12-18T10:37:31;20.10;;;8.35;;
50231;SDS011;36118;56.468;84.952;2022-12-18T10:42:34;24.00;;;11.07;;
50231;SDS011;36118;56.468;84.952;2022-12-18T10:47:41;18.60;;;9.32;;
50231;SDS011;36118;56.468;84.952;2022-12-18T10:52:52;25.65;;;9.10;;
50231;SDS011;36118;56.468;84.952;2022-12-18T10:58:02;27.30;;;9.20;;
50231;SDS011;36118;56.468;84.952;2022-12-18T11:03:33;18.27;;;8.95;;
50231;SDS011;36118;56.468;84.952;2022-12-18T11:08:38;22.37;;;10.00;;
50231;SDS011;36118;56.468;84.952;2022-12-18T11:13:42;27.92;;;13.52;;
50231;SDS011;36118;56.468;84.952;2022-12-18T11:19:12;25.38;;;12.18;;
50231;SDS011;36118;56.468;84.952;2022-12-18T11:24:19;21.27;;;9.07;;
50231;SDS011;36118;56.468;84.952;2022-12-18T11:29:36;23.05;;;11.05;;
50231;SDS011;36118;56.468;84.952;2022-12-18T11:34:48;20.13;;;9.45;;
50231;SDS011;36118;56.468;84.952;2022-12-18T11:40:06;22.58;;;11.20;;
50231;SDS011;36118;56.468;84.952;2022-12-18T11:50:17;18.27;;;7.72;;
50231;SDS011;36118;56.468;84.952;2022-12-18T12:06:58;19.67;;;8.05;;
50231;SDS011;36118;56.468;84.952;2022-12-18T12:28:39;23.13;;;10.40;;
50231;SDS011;36118;56.468;84.952;2022-12-18T12:34:01;17.92;;;7.55;;
50231;SDS011;36118;56.468;84.952;2022-12-18T12:39:22;21.75;;;10.63;;
50231;SDS011;36118;56.468;84.952;2022-12-18T12:44:29;22.95;;;9.57;;
50231;SDS011;36118;56.468;84.952;2022-12-18T12:49:35;22.45;;;8.32;;
50231;SDS011;36118;56.468;84.952;2022-12-18T12:54:41;13.60;;;6.05;;
50231;SDS011;36118;56.468;84.952;2022-12-18T13:04:58;20.58;;;7.70;;
50231;SDS011;36118;56.468;84.952;2022-12-18T13:15:21;20.45;;;8.20;;
50231;SDS011;36118;56.468;84.952;2022-12-18T13:20:24;20.60;;;8.82;;
50231;SDS011;36118;56.468;84.952;2022-12-18T13:25:36;21.33;;;7.65;;
50231;SDS011;36118;56.468;84.952;2022-12-18T13:51:32;24.63;;;10.75;;
50231;SDS011;36118;56.468;84.952;2022-12-18T13:56:42;27.42;;;11.63;;
50231;SDS011;36118;56.468;84.952;2022-12-18T14:01:50;18.60;;;6.90;;
50231;SDS011;36118;56.468;84.952;2022-12-18T14:07:05;19.90;;;10.57;;
50231;SDS011;36118;56.468;84.952;2022-12-18T14:12:49;21.10;;;8.55;;
50231;SDS011;36118;56.468;84.952;2022-12-18T14:18:20;17.70;;;7.47;;
50231;SDS011;36118;56.468;84.952;2022-12-18T14:23:40;23.30;;;9.60;;
50231;SDS011;36118;56.468;84.952;2022-12-18T14:28:44;17.23;;;7.32;;
50231;SDS011;36118;56.468;84.952;2022-12-18T14:33:48;16.48;;;7.80;;
50231;SDS011;36118;56.468;84.952;2022-12-18T14:39:00;19.23;;;8.57;;
50231;SDS011;36118;56.468;84.952;2022-12-18T14:44:05;34.10;;;16.57;;
50231;SDS011;36118;56.468;84.952;2022-12-18T14:49:23;19.58;;;9.93;;
50231;SDS011;36118;56.468;84.952;2022-12-18T14:54:37;16.55;;;7.13;;
50231;SDS011;36118;56.468;84.952;2022-12-18T14:59:41;22.67;;;8.95;;
50231;SDS011;36118;56.468;84.952;2022-12-18T15:04:44;22.85;;;8.25;;
50231;SDS011;36118;56.468;84.952;2022-12-18T15:20:51;27.92;;;14.27;;
50231;SDS011;36118;56.468;84.952;2022-12-18T15:25:56;16.35;;;5.68;;
50231;SDS011;36118;56.468;84.952;2022-12-18T15:36:15;20.80;;;9.90;;
50231;SDS011;36118;56.468;84.952;2022-12-18T15:41:27;24.20;;;11.57;;
50231;SDS011;36118;56.468;84.952;2022-12-18T15:46:29;22.40;;;10.73;;
50231;SDS011;36118;56.468;84.952;2022-12-18T15:51:34;28.33;;;13.35;;
50231;SDS011;36118;56.468;84.952;2022-12-18T15:56:37;11.82;;;5.95;;
50231;SDS011;36118;56.468;84.952;2022-12-18T16:01:59;23.35;;;9.73;;
50231;SDS011;36118;56.468;84.952;2022-12-18T16:07:03;11.63;;;4.80;;
50231;SDS011;36118;56.468;84.952;2022-12-18T16:12:18;15.52;;;5.93;;
50231;SDS011;36118;56.468;84.952;2022-12-18T16:17:23;14.43;;;5.30;;
50231;SDS011;36118;56.468;84.952;2022-12-18T16:22:28;19.97;;;6.73;;
50231;SDS011;36118;56.468;84.952;2022-12-18T16:27:31;21.45;;;8.43;;
50231;SDS011;36118;56.468;84.952;2022-12-18T16:32:34;19.73;;;10.30;;
50231;SDS011;36118;56.468;84.952;2022-12-18T16:37:37;15.77;;;6.47;;
50231;SDS011;36118;56.468;84.952;2022-12-18T16:42:40;20.80;;;11.13;;
50231;SDS011;36118;56.468;84.952;2022-12-18T16:47:44;21.75;;;9.95;;
50231;SDS011;36118;56.468;84.952;2022-12-18T16:52:47;21.27;;;12.38;;
50231;SDS011;36118;56.468;84.952;2022-12-18T16:57:51;17.60;;;7.95;;
50231;SDS011;36118;56.468;84.952;2022-12-18T17:02:53;18.93;;;9.20;;
50231;SDS011;36118;56.468;84.952;2022-12-18T17:07:56;16.63;;;5.97;;
50231;SDS011;36118;56.468;84.952;2022-12-18T17:12:59;19.00;;;8.63;;
50231;SDS011;36118;56.468;84.952;2022-12-18T17:18:02;19.77;;;9.80;;
50231;SDS011;36118;56.468;84.952;2022-12-18T17:28:08;9.00;;;4.37;;
50231;SDS011;36118;56.468;84.952;2022-12-18T17:33:10;12.77;;;5.18;;
50231;SDS011;36118;56.468;84.952;2022-12-18T17:38:15;19.65;;;9.32;;
50231;SDS011;36118;56.468;84.952;2022-12-18T17:43:17;17.60;;;7.18;;
50231;SDS011;36118;56.468;84.952;2022-12-18T17:48:21;20.95;;;8.98;;
50231;SDS011;36118;56.468;84.952;2022-12-18T17:53:25;23.92;;;9.05;;
50231;SDS011;36118;56.468;84.952;2022-12-18T17:58:27;12.30;;;5.30;;
50231;SDS011;36118;56.468;84.952;2022-12-18T18:03:30;18.27;;;7.27;;
50231;SDS011;36118;56.468;84.952;2022-12-18T18:08:35;14.70;;;4.38;;
50231;SDS011;36118;56.468;84.952;2022-12-18T18:13:38;18.65;;;8.77;;
50231;SDS011;36118;56.468;84.952;2022-12-18T18:19:00;20.50;;;10.50;;
50231;SDS011;36118;56.468;84.952;2022-12-18T18:24:04;15.15;;;6.50;;
50231;SDS011;36118;56.468;84.952;2022-12-18T18:29:07;21.45;;;9.98;;
50231;SDS011;36118;56.468;84.952;2022-12-18T18:39:16;22.85;;;12.90;;
50231;SDS011;36118;56.468;84.952;2022-12-18T18:44:20;15.68;;;4.95;;
50231;SDS011;36118;56.468;84.952;2022-12-18T18:49:27;19.33;;;6.57;;
50231;SDS011;36118;56.468;84.952;2022-12-18T18:54:31;22.83;;;12.07;;
50231;SDS011;36118;56.468;84.952;2022-12-18T18:59:33;13.80;;;6.38;;
50231;SDS011;36118;56.468;84.952;2022-12-18T19:04:36;22.07;;;13.40;;
50231;SDS011;36118;56.468;84.952;2022-12-18T19:09:46;17.27;;;9.13;;
50231;SDS011;36118;56.468;84.952;2022-12-18T19:14:53;17.20;;;8.50;;
50231;SDS011;36118;56.468;84.952;2022-12-18T19:19:55;21.58;;;11.13;;
50231;SDS011;36118;56.468;84.952;2022-12-18T19:24:58;17.60;;;8.60;;
50231;SDS011;36118;56.468;84.952;2022-12-18T19:30:01;13.97;;;6.50;;
50231;SDS011;36118;56.468;84.952;2022-12-18T19:35:04;21.85;;;12.20;;
50231;SDS011;36118;56.468;84.952;2022-12-18T19:40:08;22.65;;;9.65;;
50231;SDS011;36118;56.468;84.952;2022-12-18T19:45:13;21.40;;;7.63;;
50231;SDS011;36118;56.468;84.952;2022-12-18T19:50:16;23.67;;;12.98;;
50231;SDS011;36118;56.468;84.952;2022-12-18T19:55:19;24.80;;;7.65;;
50231;SDS011;36118;56.468;84.952;2022-12-18T20:00:22;12.45;;;6.20;;
50231;SDS011;36118;56.468;84.952;2022-12-18T20:05:25;20.83;;;9.13;;
50231;SDS011;36118;56.468;84.952;2022-12-18T20:10:27;21.30;;;9.10;;
50231;SDS011;36118;56.468;84.952;2022-12-18T20:15:30;24.55;;;11.70;;
50231;SDS011;36118;56.468;84.952;2022-12-18T20:20:33;23.50;;;11.93;;
50231;SDS011;36118;56.468;84.952;2022-12-18T20:25:36;25.70;;;13.38;;
50231;SDS011;36118;56.468;84.952;2022-12-18T20:30:39;22.65;;;8.18;;
50231;SDS011;36118;56.468;84.952;2022-12-18T20:35:42;10.53;;;4.50;;
50231;SDS011;36118;56.468;84.952;2022-12-18T20:40:45;18.17;;;7.82;;
50231;SDS011;36118;56.468;84.952;2022-12-18T20:45:48;24.13;;;11.40;;
50231;SDS011;36118;56.468;84.952;2022-12-18T20:50:58;22.02;;;9.23;;
50231;SDS011;36118;56.468;84.952;2022-12-18T20:56:17;19.35;;;8.27;;
50231;SDS011;36118;56.468;84.952;2022-12-18T21:01:22;13.63;;;5.88;;
50231;SDS011;36118;56.468;84.952;2022-12-18T21:06:26;19.38;;;7.78;;
50231;SDS011;36118;56.468;84.952;2022-12-18T21:11:29;21.97;;;7.97;;
50231;SDS011;36118;56.468;84.952;2022-12-18T21:16:51;22.17;;;12.43;;
50231;SDS011;36118;56.468;84.952;2022-12-18T21:21:54;18.17;;;9.13;;
50231;SDS011;36118;56.468;84.952;2022-12-18T21:26:57;28.20;;;15.02;;
50231;SDS011;36118;56.468;84.952;2022-12-18T21:32:00;19.35;;;9.07;;
50231;SDS011;36118;56.468;84.952;2022-12-18T21:37:03;21.05;;;12.55;;
50231;SDS011;36118;56.468;84.952;2022-12-18T21:42:06;19.85;;;8.80;;
50231;SDS011;36118;56.468;84.952;2022-12-18T21:47:28;15.93;;;7.35;;
50231;SDS011;36118;56.468;84.952;2022-12-18T21:52:31;17.17;;;7.23;;
50231;SDS011;36118;56.468;84.952;2022-12-18T21:57:34;13.75;;;6.88;;
50231;SDS011;36118;56.468;84.952;2022-12-18T22:02:37;20.67;;;9.18;;
50231;SDS011;36118;56.468;84.952;2022-12-18T22:07:40;13.75;;;5.72;;
50231;SDS011;36118;56.468;84.952;2022-12-18T22:12:43;14.87;;;6.63;;
50231;SDS011;36118;56.468;84.952;2022-12-18T22:17:46;14.70;;;6.30;;
50231;SDS011;36118;56.468;84.952;2022-12-18T22:22:49;17.10;;;8.17;;
50231;SDS011;36118;56.468;84.952;2022-12-18T22:27:52;22.13;;;11.50;;
50231;SDS011;36118;56.468;84.952;2022-12-18T22:33:13;13.38;;;5.00;;
50231;SDS011;36118;56.468;84.952;2022-12-18T22:38:16;13.45;;;6.47;;
50231;SDS011;36118;56.468;84.952;2022-12-18T22:43:19;12.40;;;4.60;;
50231;SDS011;36118;56.468;84.952;2022-12-18T22:48:21;19.93;;;8.67;;
50231;SDS011;36118;56.468;84.952;2022-12-18T22:53:24;9.33;;;5.20;;
50231;SDS011;36118;56.468;84.952;2022-12-18T22:58:27;9.47;;;3.57;;
50231;SDS011;36118;56.468;84.952;2022-12-18T23:03:32;15.63;;;6.68;;
50231;SDS011;36118;56.468;84.952;2022-12-18T23:08:36;18.35;;;9.13;;
50231;SDS011;36118;56.468;84.952;2022-12-18T23:13:39;17.90;;;7.88;;
50231;SDS011;36118;56.468;84.952;2022-12-18T23:23:44;21.20;;;10.20;;
50231;SDS011;36118;56.468;84.952;2022-12-18T23:28:50;17.38;;;7.10;;
50231;SDS011;36118;56.468;84.952;2022-12-18T23:33:54;13.68;;;6.38;;
50231;SDS011;36118;56.468;84.952;2022-12-18T23:38:58;17.25;;;7.85;;
50231;SDS011;36118;56.468;84.952;2022-12-18T23:44:02;19.08;;;10.70;;
50231;SDS011;36118;56.468;84.952;2022-12-18T23:49:04;16.65;;;8.43;;
50231;SDS011;36118;56.468;84.952;2022-12-18T23:54:07;15.95;;;6.80;;
50231;SDS011;36118;56.468;84.952;2022-12-18T23:59:10;14.93;;;6.60;;
